Time;durP1;ratioP1;P1;durP2;ratioP2;P2;SDS_P1;SDS_P2;PMS_P1;PMS_P2;Temp;Humidity;BMP_temperature;BMP_pressure;BME280_temperature;BME280_humidity;BME280_pressure;Samples;Min_cycle;Max_cycle;Signal;HPM_P1;HPM_P2
2023/12/21 00:01:00;;;;;;;;;;;;;;;7.90;100.00;100565.78;5027392;28;20369;-75
2023/12/21 00:03:25;;;;;;;;;;;;;;;7.93;100.00;100548.66;5028954;28;19924;-75
2023/12/21 00:05:51;;;;;;;;;;;;;;;7.87;100.00;100552.66;5023660;28;20235;-75
2023/12/21 00:08:16;;;;;;;;;;;;;;;7.88;100.00;100537.44;5018611;28;20657;-75
2023/12/21 00:10:41;;;;;;;;;;;;;;;7.84;100.00;100517.25;5024490;28;19920;-75
2023/12/21 00:13:06;;;;;;;;;;;;;;;7.85;100.00;100508.25;5028240;28;20274;-77
2023/12/21 00:15:31;;;;;;;;;;;;;;;7.85;100.00;100501.13;5020019;28;20411;-77
2023/12/21 00:17:57;;;;;;;;;;;;;;;7.90;100.00;100496.28;5027568;28;19924;-75
2023/12/21 00:20:22;;;;;;;;;;;;;;;7.85;100.00;100503.78;5027446;28;19974;-77
2023/12/21 00:22:47;;;;;;;;;;;;;;;7.88;100.00;100494.69;5022902;28;20187;-77
2023/12/21 00:25:12;;;;;;;;;;;;;;;7.92;100.00;100488.16;5012112;28;19925;-78
2023/12/21 00:27:38;;;;;;;;;;;;;;;7.90;100.00;100496.28;5024493;28;20339;-76
2023/12/21 00:30:03;;;;;;;;;;;;;;;7.89;100.00;100485.69;5011474;28;20430;-77
2023/12/21 00:32:28;;;;;;;;;;;;;;;7.76;100.00;100453.66;5024658;28;19921;-78
2023/12/21 00:34:53;;;;;;;;;;;;;;;7.89;100.00;100472.34;5014286;28;19928;-77
2023/12/21 00:37:21;;;;;;;;;;;;;;;7.86;100.00;100465.41;5033691;28;19960;-77
2023/12/21 00:39:46;;;;;;;;;;;;;;;7.88;100.00;100474.16;5011750;28;19991;-77
2023/12/21 00:42:12;;;;;;;;;;;;;;;7.84;100.00;100466.47;5008893;28;20354;-77
2023/12/21 00:44:37;;;;;;;;;;;;;;;7.85;100.00;100454.81;5022175;28;20315;-75
2023/12/21 00:47:03;;;;;;;;;;;;;;;7.92;100.00;100443.56;5009639;28;19927;-77
2023/12/21 00:49:28;;;;;;;;;;;;;;;7.83;100.00;100430.00;5013725;28;19953;-77
2023/12/21 00:51:53;;;;;;;;;;;;;;;7.83;100.00;100420.19;5012527;28;19983;-76
2023/12/21 00:54:18;;;;;;;;;;;;;;;7.92;100.00;100415.97;5023894;28;19968;-75
2023/12/21 00:56:43;;;;;;;;;;;;;;;7.89;100.00;100424.22;5007948;28;19928;-78
2023/12/21 00:59:09;;;;;;;;;;;;;;;7.93;100.00;100420.34;5024477;28;20462;-77
2023/12/21 01:01:34;;;;;;;;;;;;;;;7.88;100.00;100412.69;5025913;28;20303;-76
2023/12/21 01:03:59;;;;;;;;;;;;;;;7.84;100.00;100411.19;5022526;28;20398;-76
2023/12/21 01:06:24;;;;;;;;;;;;;;;7.91;100.00;100412.47;5009981;28;19947;-75
2023/12/21 01:08:50;;;;;;;;;;;;;;;7.87;100.00;100396.75;5026455;28;19995;-77
2023/12/21 01:11:15;;;;;;;;;;;;;;;7.83;100.00;100384.56;5022456;28;20105;-75
2023/12/21 01:13:40;;;;;;;;;;;;;;;7.78;100.00;100377.75;5011105;28;19941;-76
2023/12/21 01:16:05;;;;;;;;;;;;;;;7.84;100.00;100365.75;5022930;28;19924;-77
2023/12/21 01:18:30;;;;;;;;;;;;;;;7.84;100.00;100363.09;5011922;28;19929;-76
2023/12/21 01:20:56;;;;;;;;;;;;;;;7.79;100.00;100362.56;5026561;28;19971;-76
2023/12/21 01:23:21;;;;;;;;;;;;;;;7.88;100.00;100361.03;5009881;28;20004;-75
2023/12/21 01:25:46;;;;;;;;;;;;;;;7.85;100.00;100351.44;5011221;28;19935;-82
2023/12/21 01:28:12;;;;;;;;;;;;;;;7.84;100.00;100344.38;5029248;28;20370;-76
2023/12/21 01:30:37;;;;;;;;;;;;;;;7.83;100.00;100350.69;5009511;28;20333;-74
2023/12/21 01:33:02;;;;;;;;;;;;;;;7.85;100.00;100346.09;5009140;28;20339;-76
2023/12/21 01:35:27;;;;;;;;;;;;;;;7.82;100.00;100332.94;5012478;28;20399;-75
2023/12/21 01:37:52;;;;;;;;;;;;;;;7.85;100.00;100322.03;5010073;28;20003;-75
2023/12/21 01:40:18;;;;;;;;;;;;;;;7.83;100.00;100326.63;5024445;28;20275;-75
2023/12/21 01:42:43;;;;;;;;;;;;;;;7.87;100.00;100322.78;5023119;28;20814;-76
2023/12/21 01:45:08;;;;;;;;;;;;;;;7.85;100.00;100337.19;5026319;28;19959;-75
2023/12/21 01:47:33;;;;;;;;;;;;;;;7.85;100.00;100326.50;5010674;28;19968;-76
2023/12/21 01:49:59;;;;;;;;;;;;;;;7.88;100.00;100316.47;5010646;28;19943;-75
2023/12/21 01:52:24;;;;;;;;;;;;;;;7.80;100.00;100306.34;5025036;28;19995;-75
2023/12/21 01:54:49;;;;;;;;;;;;;;;7.88;100.00;100300.41;5024006;28;22047;-76
2023/12/21 01:57:14;;;;;;;;;;;;;;;7.85;100.00;100305.13;5007217;28;20326;-76
2023/12/21 01:59:39;;;;;;;;;;;;;;;7.83;100.00;100310.59;5024133;28;20580;-75
2023/12/21 02:02:05;;;;;;;;;;;;;;;7.80;100.00;100300.13;5009617;28;20283;-76
2023/12/21 02:04:30;;;;;;;;;;;;;;;7.78;100.00;100305.59;5008744;28;20006;-75
2023/12/21 02:06:56;;;;;;;;;;;;;;;7.81;100.00;100307.19;5025556;28;20375;-75
2023/12/21 02:09:21;;;;;;;;;;;;;;;7.83;100.00;100309.72;5028727;28;20343;-75
2023/12/21 02:11:46;;;;;;;;;;;;;;;7.89;100.00;100317.28;5024538;28;19931;-75
2023/12/21 02:14:11;;;;;;;;;;;;;;;7.87;100.00;100316.56;5026310;28;20560;-76
2023/12/21 02:16:39;;;;;;;;;;;;;;;7.87;100.00;100311.22;5024964;28;19925;-74
2023/12/21 02:19:04;;;;;;;;;;;;;;;7.94;100.00;100299.97;5014077;28;20063;-76
2023/12/21 02:21:29;;;;;;;;;;;;;;;7.92;100.00;100301.91;5031691;28;19925;-75
2023/12/21 02:23:55;;;;;;;;;;;;;;;7.97;100.00;100293.53;5013890;28;19928;-75
2023/12/21 02:26:20;;;;;;;;;;;;;;;8.04;100.00;100286.75;5033493;28;20093;-76
2023/12/21 02:28:45;;;;;;;;;;;;;;;8.02;100.00;100294.03;5014820;28;19921;-76
2023/12/21 02:31:10;;;;;;;;;;;;;;;8.01;100.00;100292.31;5029443;28;19924;-75
2023/12/21 02:33:35;;;;;;;;;;;;;;;8.00;100.00;100282.59;5033483;28;19925;-75
2023/12/21 02:36:03;;;;;;;;;;;;;;;7.94;100.00;100283.94;5030790;28;20365;-75
2023/12/21 02:38:28;;;;;;;;;;;;;;;7.90;100.00;100262.88;5028377;28;20179;-76
2023/12/21 02:40:53;;;;;;;;;;;;;;;8.02;100.00;100261.09;5011272;28;19990;-75
2023/12/21 02:43:18;;;;;;;;;;;;;;;7.95;100.00;100248.19;5012616;28;19920;-77
2023/12/21 02:45:43;;;;;;;;;;;;;;;7.89;100.00;100254.00;5028136;28;20249;-77
2023/12/21 02:48:10;;;;;;;;;;;;;;;7.87;100.00;100249.72;5029870;28;20023;-76
2023/12/21 02:50:35;;;;;;;;;;;;;;;7.96;100.00;100255.22;5029972;28;19966;-77
2023/12/21 02:53:00;;;;;;;;;;;;;;;7.96;100.00;100247.22;5028978;28;19928;-78
2023/12/21 02:55:25;;;;;;;;;;;;;;;7.89;100.00;100243.31;5033330;28;20311;-77
2023/12/21 02:57:51;;;;;;;;;;;;;;;7.94;100.00;100240.28;5028987;28;19929;-76
2023/12/21 03:00:16;;;;;;;;;;;;;;;7.90;100.00;100239.69;5010775;28;19960;-76
2023/12/21 03:02:41;;;;;;;;;;;;;;;7.95;100.00;100232.13;5025048;28;19920;-75
2023/12/21 03:05:06;;;;;;;;;;;;;;;7.95;100.00;100234.81;5011889;28;19925;-77
2023/12/21 03:07:31;;;;;;;;;;;;;;;7.93;100.00;100215.41;5012034;28;20317;-76
2023/12/21 03:09:57;;;;;;;;;;;;;;;7.89;100.00;100207.72;5013566;28;19988;-76
2023/12/21 03:12:22;;;;;;;;;;;;;;;7.93;100.00;100198.50;5008782;28;20291;-79
2023/12/21 03:14:47;;;;;;;;;;;;;;;7.95;100.00;100188.53;5026349;28;20401;-78
2023/12/21 03:17:13;;;;;;;;;;;;;;;7.93;100.00;100169.94;5023618;28;19925;-77
2023/12/21 03:19:39;;;;;;;;;;;;;;;7.93;100.00;100147.69;5008665;28;19920;-78
2023/12/21 03:22:04;;;;;;;;;;;;;;;7.91;100.00;100145.16;5012081;28;20042;-76
2023/12/21 03:24:29;;;;;;;;;;;;;;;7.91;100.00;100145.16;5008638;28;20415;-80
2023/12/21 03:26:54;;;;;;;;;;;;;;;7.89;100.00;100127.53;5006213;28;20483;-78
2023/12/21 03:29:19;;;;;;;;;;;;;;;7.89;100.00;100123.03;5022922;28;20429;-78
2023/12/21 03:31:45;;;;;;;;;;;;;;;7.91;100.00;100113.09;5008186;28;19929;-78
2023/12/21 03:34:10;;;;;;;;;;;;;;;7.93;100.00;100118.28;5009710;28;19925;-79
2023/12/21 03:36:35;;;;;;;;;;;;;;;7.88;100.00;100117.78;5021955;28;19931;-78
2023/12/21 03:39:00;;;;;;;;;;;;;;;7.92;100.00;100114.78;5008923;28;20007;-78
2023/12/21 03:41:25;;;;;;;;;;;;;;;7.91;100.00;100110.41;5029265;28;19917;-79
2023/12/21 03:43:51;;;;;;;;;;;;;;;7.94;100.00;100104.81;5026835;28;19924;-76
2023/12/21 03:46:16;;;;;;;;;;;;;;;7.91;100.00;100089.03;5024387;28;19956;-77
2023/12/21 03:48:41;;;;;;;;;;;;;;;7.88;100.00;100089.25;5023713;28;19988;-78
2023/12/21 03:51:06;;;;;;;;;;;;;;;7.85;100.00;100084.16;5009461;28;19928;-78
2023/12/21 03:53:32;;;;;;;;;;;;;;;7.92;100.00;100077.38;5025627;28;19921;-78
2023/12/21 03:55:57;;;;;;;;;;;;;;;7.92;100.00;100077.38;5024115;28;20005;-78
2023/12/21 03:58:22;;;;;;;;;;;;;;;7.93;100.00;100079.06;5027357;28;19947;-78
2023/12/21 04:00:47;;;;;;;;;;;;;;;7.91;100.00;100069.44;5014448;28;19921;-79
2023/12/21 04:03:13;;;;;;;;;;;;;;;7.88;100.00;100065.22;5010609;28;19917;-78
2023/12/21 04:05:38;;;;;;;;;;;;;;;7.89;100.00;100063.38;5030003;28;20314;-79
2023/12/21 04:08:04;;;;;;;;;;;;;;;7.93;100.00;100060.34;5007474;28;20370;-77
2023/12/21 04:10:29;;;;;;;;;;;;;;;7.92;100.00;100068.47;5013495;28;19927;-79
2023/12/21 04:12:54;;;;;;;;;;;;;;;8.00;100.00;100060.72;5012230;28;19978;-79
2023/12/21 04:15:19;;;;;;;;;;;;;;;7.90;100.00;100025.84;5032933;28;20471;-78
2023/12/21 04:17:44;;;;;;;;;;;;;;;7.93;100.00;100038.09;5009412;28;19928;-79
2023/12/21 04:20:10;;;;;;;;;;;;;;;7.95;100.00;100023.63;5013542;28;19925;-75
2023/12/21 04:22:35;;;;;;;;;;;;;;;7.95;100.00;100022.78;5012400;28;19963;-75
2023/12/21 04:25:00;;;;;;;;;;;;;;;7.81;100.00;100003.34;5024032;28;19960;-74
2023/12/21 04:27:26;;;;;;;;;;;;;;;7.99;100.00;100026.94;5012248;28;19959;-76
2023/12/21 04:29:52;;;;;;;;;;;;;;;8.01;100.00;100025.00;5011410;28;20276;-75
2023/12/21 04:32:17;;;;;;;;;;;;;;;7.96;100.00;100011.97;5025979;28;19920;-75
2023/12/21 04:34:42;;;;;;;;;;;;;;;7.99;100.00;100007.34;5013618;28;19916;-77
2023/12/21 04:37:07;;;;;;;;;;;;;;;7.94;100.00;99997.91;5013221;28;19931;-77
2023/12/21 04:39:33;;;;;;;;;;;;;;;8.03;100.00;99990.97;5029522;28;19939;-78
2023/12/21 04:41:58;;;;;;;;;;;;;;;8.08;100.00;100017.31;5026474;28;20366;-77
2023/12/21 04:44:23;;;;;;;;;;;;;;;8.18;100.00;100007.59;5008571;28;20602;-76
2023/12/21 04:46:49;;;;;;;;;;;;;;;8.13;100.00;100000.91;5021938;28;20620;-75
2023/12/21 04:49:14;;;;;;;;;;;;;;;8.21;100.00;100009.16;5025411;28;19916;-74
2023/12/21 04:51:40;;;;;;;;;;;;;;;8.21;100.00;100003.81;5014350;28;19964;-76
2023/12/21 04:54:06;;;;;;;;;;;;;;;8.28;100.00;99988.97;5024174;28;19927;-75
2023/12/21 04:56:31;;;;;;;;;;;;;;;8.34;100.00;99991.13;5026154;28;20355;-75
2023/12/21 04:58:56;;;;;;;;;;;;;;;8.33;100.00;99980.56;5027290;28;21908;-75
2023/12/21 05:01:21;;;;;;;;;;;;;;;8.34;100.00;99985.75;5011962;28;20282;-74
2023/12/21 05:03:46;;;;;;;;;;;;;;;8.38;100.00;99997.09;5009476;28;20375;-75
2023/12/21 05:06:12;;;;;;;;;;;;;;;8.39;100.00;100002.28;5010140;28;19921;-75
2023/12/21 05:08:37;;;;;;;;;;;;;;;8.38;100.00;100018.47;5008253;28;19951;-75
2023/12/21 05:11:02;;;;;;;;;;;;;;;8.47;100.00;100027.56;5009647;28;19964;-75
2023/12/21 05:13:27;;;;;;;;;;;;;;;8.48;100.00;100029.28;5027443;28;20011;-75
2023/12/21 05:15:53;;;;;;;;;;;;;;;8.44;100.00;100015.31;5025975;28;19927;-74
2023/12/21 05:18:18;;;;;;;;;;;;;;;8.58;100.00;100027.59;5009782;28;20036;-75
2023/12/21 05:20:43;;;;;;;;;;;;;;;8.54;100.00;100032.31;5028616;28;20011;-75
2023/12/21 05:23:08;;;;;;;;;;;;;;;8.59;100.00;100039.97;5029660;28;19917;-77
2023/12/21 05:25:33;;;;;;;;;;;;;;;8.55;100.00;100023.31;5009057;28;19921;-74
2023/12/21 05:27:59;;;;;;;;;;;;;;;8.53;100.00;100029.78;5029604;28;19925;-74
2023/12/21 05:30:24;;;;;;;;;;;;;;;8.54;100.00;100032.31;5031643;28;19920;-74
2023/12/21 05:32:49;;;;;;;;;;;;;;;8.61;100.00;100026.47;5027597;28;19921;-74
2023/12/21 05:35:14;;;;;;;;;;;;;;;8.49;100.00;100039.88;5030227;28;19924;-74
2023/12/21 05:37:40;;;;;;;;;;;;;;;8.50;100.00;100020.16;5009545;28;20041;-74
2023/12/21 05:40:08;;;;;;;;;;;;;;;8.41;100.00;100010.22;5011163;28;20014;-74
2023/12/21 05:42:34;;;;;;;;;;;;;;;8.46;100.00;100008.00;5027912;28;19928;-75
2023/12/21 05:44:59;;;;;;;;;;;;;;;8.38;100.00;99991.72;5024771;28;20290;-76
2023/12/21 05:47:24;;;;;;;;;;;;;;;8.37;100.00;99998.06;5008291;28;19932;-74
2023/12/21 05:49:49;;;;;;;;;;;;;;;8.37;100.00;99995.38;5011532;28;19974;-76
2023/12/21 05:52:15;;;;;;;;;;;;;;;8.44;100.00;100012.63;5005963;28;20005;-77
2023/12/21 05:54:40;;;;;;;;;;;;;;;8.47;100.00;100007.03;5022655;28;19925;-77
2023/12/21 05:57:05;;;;;;;;;;;;;;;8.46;100.00;100009.81;5026148;28;19921;-75
2023/12/21 05:59:30;;;;;;;;;;;;;;;8.50;100.00;100017.50;5028169;28;19947;-75
2023/12/21 06:01:56;;;;;;;;;;;;;;;8.49;100.00;100018.47;5025410;28;20974;-73
2023/12/21 06:04:21;;;;;;;;;;;;;;;8.47;100.00;100001.69;5025216;28;19928;-75
2023/12/21 06:06:46;;;;;;;;;;;;;;;8.53;100.00;100013.72;5026028;28;22174;-74
2023/12/21 06:09:11;;;;;;;;;;;;;;;8.52;100.00;100004.00;5024145;28;20313;-74
2023/12/21 06:11:37;;;;;;;;;;;;;;;8.55;100.00;100006.44;5028015;28;20025;-74
2023/12/21 06:14:02;;;;;;;;;;;;;;;8.60;100.00;100006.03;5032280;28;20227;-75
2023/12/21 06:16:27;;;;;;;;;;;;;;;8.60;100.00;100003.34;5021393;28;20386;-74
2023/12/21 06:18:52;;;;;;;;;;;;;;;8.59;100.00;100005.19;5023165;28;19952;-76
2023/12/21 06:21:18;;;;;;;;;;;;;;;8.56;100.00;99997.41;5024913;28;19962;-74
2023/12/21 06:23:43;;;;;;;;;;;;;;;8.47;100.00;99979.41;5031216;28;20011;-75
2023/12/21 06:26:08;;;;;;;;;;;;;;;8.41;100.00;99960.22;5025742;28;19929;-73
2023/12/21 06:28:33;;;;;;;;;;;;;;;8.42;100.00;99945.03;5027723;28;19921;-74
2023/12/21 06:30:59;;;;;;;;;;;;;;;8.39;100.00;99948.78;5023939;28;19924;-75
2023/12/21 06:33:24;;;;;;;;;;;;;;;8.40;100.00;99930.94;5028899;28;20224;-75
2023/12/21 06:35:49;;;;;;;;;;;;;;;8.43;100.00;99932.50;5024818;28;19978;-75
2023/12/21 06:38:14;;;;;;;;;;;;;;;8.38;100.00;99922.19;5028808;28;19931;-73
2023/12/21 06:40:40;;;;;;;;;;;;;;;8.39;100.00;99926.56;5031947;28;19932;-75
2023/12/21 06:43:05;;;;;;;;;;;;;;;8.45;100.00;99927.88;5026061;28;19943;-75
2023/12/21 06:45:30;;;;;;;;;;;;;;;8.43;100.00;99924.47;5026852;28;20214;-74
2023/12/21 06:47:57;;;;;;;;;;;;;;;8.48;100.00;99906.22;5023582;28;19928;-74
2023/12/21 06:50:22;;;;;;;;;;;;;;;8.53;100.00;99915.56;5023999;28;19948;-75
2023/12/21 06:52:48;;;;;;;;;;;;;;;8.58;100.00;99906.31;5025778;28;19920;-75
2023/12/21 06:55:13;;;;;;;;;;;;;;;8.60;100.00;99893.66;5027544;28;20006;-74
2023/12/21 06:57:38;;;;;;;;;;;;;;;8.55;100.00;99904.75;5025197;28;19929;-75
2023/12/21 07:00:04;;;;;;;;;;;;;;;8.51;100.00;99888.09;5021187;28;19924;-75
2023/12/21 07:02:30;;;;;;;;;;;;;;;8.50;100.00;99864.16;5025490;28;20140;-75
2023/12/21 07:04:55;;;;;;;;;;;;;;;8.49;100.00;99870.50;5008645;28;20581;-76
2023/12/21 07:07:20;;;;;;;;;;;;;;;8.37;100.00;99841.06;5011934;28;19920;-77
2023/12/21 07:09:45;;;;;;;;;;;;;;;8.51;100.00;99841.78;5025712;28;20411;-75
2023/12/21 07:12:11;;;;;;;;;;;;;;;8.52;100.00;99843.47;5033373;28;20287;-75
2023/12/21 07:14:39;;;;;;;;;;;;;;;8.59;100.00;99849.16;5029848;28;19947;-75
2023/12/21 07:17:04;;;;;;;;;;;;;;;8.50;100.00;99848.09;5030181;28;19929;-75
2023/12/21 07:19:30;;;;;;;;;;;;;;;8.45;100.00;99839.59;5022653;28;19970;-76
2023/12/21 07:21:55;;;;;;;;;;;;;;;8.45;100.00;99827.06;5027537;28;20100;-74
2023/12/21 07:24:20;;;;;;;;;;;;;;;8.54;100.00;99812.09;5029654;28;19921;-75
2023/12/21 07:26:46;;;;;;;;;;;;;;;8.47;100.00;99806.41;5026767;28;19956;-75
2023/12/21 07:29:11;;;;;;;;;;;;;;;8.54;100.00;99801.41;5023279;28;19967;-77
2023/12/21 07:31:36;;;;;;;;;;;;;;;8.56;100.00;99807.47;5023584;28;20166;-75
2023/12/21 07:34:02;;;;;;;;;;;;;;;8.53;100.00;99800.53;5022077;28;19965;-75
2023/12/21 07:36:27;;;;;;;;;;;;;;;8.55;100.00;99809.28;5024984;28;19971;-76
2023/12/21 07:38:52;;;;;;;;;;;;;;;8.52;100.00;99784.63;5015058;28;20399;-78
2023/12/21 07:41:17;;;;;;;;;;;;;;;8.49;100.00;99804.44;5026938;28;20389;-76
2023/12/21 07:43:44;;;;;;;;;;;;;;;8.51;100.00;99794.47;5027675;28;19921;-75
2023/12/21 07:46:10;;;;;;;;;;;;;;;8.54;100.00;99791.53;5026115;28;19925;-76
2023/12/21 07:48:35;;;;;;;;;;;;;;;8.50;100.00;99792.75;5006259;28;19921;-75
2023/12/21 07:51:00;;;;;;;;;;;;;;;8.45;100.00;99775.38;5023860;28;19964;-76
2023/12/21 07:53:25;;;;;;;;;;;;;;;8.45;100.00;99775.38;5022375;28;19921;-74
2023/12/21 07:55:50;;;;;;;;;;;;;;;8.48;100.00;99767.09;5027969;28;19967;-78
2023/12/21 07:58:16;;;;;;;;;;;;;;;8.50;100.00;99760.66;5026835;28;19964;-76
2023/12/21 08:00:41;;;;;;;;;;;;;;;8.48;100.00;99759.06;5019338;28;21203;-74
2023/12/21 08:03:06;;;;;;;;;;;;;;;8.43;100.00;99748.78;5024931;28;19983;-73
2023/12/21 08:05:31;;;;;;;;;;;;;;;8.48;100.00;99737.69;5005073;28;19966;-74
2023/12/21 08:07:57;;;;;;;;;;;;;;;8.43;100.00;99732.72;5004374;28;19920;-74
2023/12/21 08:10:22;;;;;;;;;;;;;;;8.43;100.00;99734.53;5025947;28;20289;-72
2023/12/21 08:12:47;;;;;;;;;;;;;;;8.44;100.00;99721.06;5027861;28;20577;-75
2023/12/21 08:15:14;;;;;;;;;;;;;;;8.50;100.00;99717.03;5027500;28;19917;-75
2023/12/21 08:17:40;;;;;;;;;;;;;;;8.46;100.00;99719.09;5011460;28;20370;-74
2023/12/21 08:20:05;;;;;;;;;;;;;;;8.52;100.00;99705.19;5025916;28;19921;-74
2023/12/21 08:22:31;;;;;;;;;;;;;;;8.50;100.00;99703.66;5023416;28;22000;-73
2023/12/21 08:24:57;;;;;;;;;;;;;;;8.49;100.00;99694.75;5023415;28;19929;-74
2023/12/21 08:27:22;;;;;;;;;;;;;;;8.48;100.00;99684.19;5026353;28;19925;-73
2023/12/21 08:29:47;;;;;;;;;;;;;;;8.47;100.00;99691.38;5030029;28;19931;-74
2023/12/21 08:32:13;;;;;;;;;;;;;;;8.53;100.00;99692.69;5027983;28;19928;-73
2023/12/21 08:34:38;;;;;;;;;;;;;;;8.53;100.00;99690.84;5029616;28;20006;-74
2023/12/21 08:37:04;;;;;;;;;;;;;;;8.57;100.00;99675.38;5023775;28;19978;-74
2023/12/21 08:39:29;;;;;;;;;;;;;;;8.53;100.00;99664.09;5025544;28;19924;-74
2023/12/21 08:41:54;;;;;;;;;;;;;;;8.53;100.00;99657.91;5024665;28;20017;-73
2023/12/21 08:44:19;;;;;;;;;;;;;;;8.59;100.00;99654.69;5030198;28;19956;-74
2023/12/21 08:46:45;;;;;;;;;;;;;;;8.59;100.00;99649.34;5025643;28;19928;-73
2023/12/21 08:49:11;;;;;;;;;;;;;;;8.63;100.00;99637.34;5026393;28;19925;-74
2023/12/21 08:51:38;;;;;;;;;;;;;;;8.60;100.00;99623.41;5004032;28;20302;-75
2023/12/21 08:54:03;;;;;;;;;;;;;;;8.65;100.00;99621.19;5026977;28;20260;-77
2023/12/21 08:56:29;;;;;;;;;;;;;;;8.65;100.00;99631.88;5002981;28;20053;-73
2023/12/21 08:58:56;;;;;;;;;;;;;;;8.68;100.00;99628.94;5019444;28;19955;-74
2023/12/21 09:01:21;;;;;;;;;;;;;;;8.63;100.00;99615.94;5005066;28;19924;-75
2023/12/21 09:03:46;;;;;;;;;;;;;;;8.69;100.00;99612.72;5022118;28;20330;-72
2023/12/21 09:06:12;;;;;;;;;;;;;;;8.70;100.00;99610.91;5020316;28;20059;-75
2023/12/21 09:08:37;;;;;;;;;;;;;;;8.69;100.00;99602.03;5020681;28;20425;-75
2023/12/21 09:11:02;;;;;;;;;;;;;;;8.76;100.00;99625.56;5023049;28;20318;-74
2023/12/21 09:13:28;;;;;;;;;;;;;;;8.77;100.00;99606.69;5024733;28;19979;-75
2023/12/21 09:15:53;;;;;;;;;;;;;;;8.85;100.00;99624.75;5022555;28;19966;-75
2023/12/21 09:18:18;;;;;;;;;;;;;;;8.89;100.00;99612.75;5024075;28;19952;-74
2023/12/21 09:20:43;;;;;;;;;;;;;;;8.91;100.00;99601.94;5023695;28;20330;-74
2023/12/21 09:23:09;;;;;;;;;;;;;;;8.95;100.00;99609.53;5025460;28;20032;-73
2023/12/21 09:25:34;;;;;;;;;;;;;;;8.99;100.00;99613.63;5022581;28;20489;-73
2023/12/21 09:27:59;;;;;;;;;;;;;;;8.98;100.00;99609.25;5029801;28;20396;-73
2023/12/21 09:30:26;;;;;;;;;;;;;;;9.02;100.00;99620.53;5032004;28;19925;-77
2023/12/21 09:32:51;;;;;;;;;;;;;;;9.02;100.00;99583.03;5030872;28;19925;-76
2023/12/21 09:35:17;;;;;;;;;;;;;;;9.09;100.00;99628.88;5031523;28;19927;-74
2023/12/21 09:37:43;;;;;;;;;;;;;;;9.10;100.00;99614.50;5037271;28;19995;-73
2023/12/21 09:40:08;;;;;;;;;;;;;;;9.09;100.00;99608.28;5033343;28;19947;-75
2023/12/21 09:42:34;;;;;;;;;;;;;;;9.09;100.00;99620.84;5029199;28;19921;-74
2023/12/21 09:44:59;;;;;;;;;;;;;;;9.10;100.00;99611.81;5030202;28;19917;-75
2023/12/21 09:47:25;;;;;;;;;;;;;;;9.10;100.00;99617.19;5027155;28;20218;-74
2023/12/21 09:49:50;;;;;;;;;;;;;;;9.11;100.00;99603.63;5030742;28;20113;-75
2023/12/21 09:52:17;;;;;;;;;;;;;;;9.13;100.00;99588.28;5032750;28;19921;-75
2023/12/21 09:54:43;;;;;;;;;;;;;;;9.12;100.00;99597.28;5014508;28;19928;-74
2023/12/21 09:57:08;;;;;;;;;;;;;;;9.20;100.00;99612.66;5034972;28;20568;-77
2023/12/21 09:59:33;;;;;;;;;;;;;;;9.20;100.00;99627.88;5030238;28;19928;-76
2023/12/21 10:01:59;;;;;;;;;;;;;;;9.23;100.00;99612.38;5026493;28;19917;-76
2023/12/21 10:04:24;;;;;;;;;;;;;;;9.24;100.00;99624.78;5033593;28;19927;-74
2023/12/21 10:06:49;;;;;;;;;;;;;;;9.27;100.00;99629.84;5030547;28;21842;-80
2023/12/21 10:09:15;;;;;;;;;;;;;;;9.28;100.00;99630.69;5014120;28;19924;-76
2023/12/21 10:11:41;;;;;;;;;;;;;;;9.27;100.00;99610.28;5021200;28;20415;-75
2023/12/21 10:14:14;;;;;;;;;;;;;;;9.26;100.00;99603.22;5032104;28;19990;-75
2023/12/21 10:16:39;;;;;;;;;;;;;;;9.29;100.00;99630.56;5034192;28;19936;-76
2023/12/21 10:19:09;;;;;;;;;;;;;;;9.29;100.00;99630.56;5010071;28;19920;-76
2023/12/21 10:21:34;;;;;;;;;;;;;;;9.34;100.00;99603.34;5035148;28;19946;-75
2023/12/21 10:23:59;;;;;;;;;;;;;;;9.36;100.00;99609.41;5029716;28;20321;-75
2023/12/21 10:26:25;;;;;;;;;;;;;;;9.41;100.00;99625.91;5032298;28;19925;-78
2023/12/21 10:28:51;;;;;;;;;;;;;;;9.38;100.00;99604.75;5031858;28;19987;-73
2023/12/21 10:31:17;;;;;;;;;;;;;;;9.39;100.00;99602.94;5017926;28;20022;-73
2023/12/21 10:33:42;;;;;;;;;;;;;;;9.38;100.00;99586.00;5019422;28;19925;-73
2023/12/21 10:36:07;;;;;;;;;;;;;;;9.43;100.00;99591.78;5019055;28;20077;-75
2023/12/21 10:38:33;;;;;;;;;;;;;;;9.56;100.00;99596.84;5022463;28;19944;-75
2023/12/21 10:41:05;;;;;;;;;;;;;;;9.53;100.00;99589.09;5026827;28;19974;-74
2023/12/21 10:43:30;;;;;;;;;;;;;;;9.66;100.00;99567.34;5028703;28;20331;-75
2023/12/21 10:45:55;;;;;;;;;;;;;;;9.80;100.00;99597.38;5014061;28;19964;-77
2023/12/21 10:48:21;;;;;;;;;;;;;;;9.90;100.00;99590.97;5023277;28;19932;-74
2023/12/21 10:50:47;;;;;;;;;;;;;;;9.95;100.00;99590.53;5023161;28;20015;-76
2023/12/21 10:53:13;;;;;;;;;;;;;;;10.03;100.00;99605.88;5024632;28;19927;-80
2023/12/21 10:55:38;;;;;;;;;;;;;;;10.05;100.00;99610.13;5023659;28;19990;-76
2023/12/21 10:58:06;;;;;;;;;;;;;;;10.04;100.00;99623.66;5025940;28;20031;-75
2023/12/21 11:00:31;;;;;;;;;;;;;;;9.98;100.00;99621.56;5026292;28;19943;-74
2023/12/21 11:02:56;;;;;;;;;;;;;;;10.08;100.00;99608.13;5022694;28;20339;-77
2023/12/21 11:05:22;;;;;;;;;;;;;;;10.02;100.00;99610.41;5020243;28;19921;-75
2023/12/21 11:07:48;;;;;;;;;;;;;;;9.93;100.00;99616.66;5023406;28;19921;-75
2023/12/21 11:10:14;;;;;;;;;;;;;;;9.85;100.00;99600.44;5023909;28;20310;-75
2023/12/21 11:12:39;;;;;;;;;;;;;;;9.84;100.00;99609.47;5027814;28;19979;-76
2023/12/21 11:15:04;;;;;;;;;;;;;;;9.85;100.00;99595.94;5022639;28;20115;-73
2023/12/21 11:17:30;;;;;;;;;;;;;;;9.83;100.00;99591.69;5026513;28;20333;-75
2023/12/21 11:19:55;;;;;;;;;;;;;;;9.81;100.00;99583.81;5029555;28;19987;-74
2023/12/21 11:22:21;;;;;;;;;;;;;;;9.78;100.00;99593.97;5013773;28;20031;-76
2023/12/21 11:24:46;;;;;;;;;;;;;;;9.80;100.00;99589.31;5028698;28;19916;-74
2023/12/21 11:27:11;;;;;;;;;;;;;;;9.79;100.00;99588.47;5016944;28;19921;-74
2023/12/21 11:29:37;;;;;;;;;;;;;;;9.78;100.00;99586.78;5024577;28;19964;-74
2023/12/21 11:32:05;;;;;;;;;;;;;;;9.84;100.00;99577.28;5009132;28;19963;-76
2023/12/21 11:34:39;;;;;;;;;;;;;;;9.89;100.00;99597.34;5030544;28;19920;-76
2023/12/21 11:37:14;;;;;;;;;;;;;;;9.92;100.00;99598.88;5028749;28;20023;-74
2023/12/21 11:39:39;;;;;;;;;;;;;;;9.80;100.00;99570.56;5029227;28;19932;-74
2023/12/21 11:42:06;;;;;;;;;;;;;;;9.73;100.00;99557.75;5014188;28;19921;-77
2023/12/21 11:44:37;;;;;;;;;;;;;;;9.68;100.00;99569.84;5028806;28;19928;-76
2023/12/21 11:47:11;;;;;;;;;;;;;;;9.69;100.00;99559.00;5010520;28;20286;-75
2023/12/21 11:49:37;;;;;;;;;;;;;;;9.80;100.00;99554.47;5028173;28;19912;-75
2023/12/21 11:52:02;;;;;;;;;;;;;;;9.83;100.00;99564.88;5021761;28;19924;-75
2023/12/21 11:54:27;;;;;;;;;;;;;;;9.84;100.00;99555.84;5026449;28;19925;-76
2023/12/21 11:56:53;;;;;;;;;;;;;;;9.98;100.00;99565.25;5029286;28;20005;-75
2023/12/21 11:59:22;;;;;;;;;;;;;;;9.87;100.00;99579.69;5005407;28;19921;-74
2023/12/21 12:01:47;;;;;;;;;;;;;;;9.76;100.00;99559.28;5023009;28;19943;-77
2023/12/21 12:04:15;;;;;;;;;;;;;;;9.73;100.00;99546.16;5013666;28;20290;-75
2023/12/21 12:06:44;;;;;;;;;;;;;;;9.74;100.00;99537.97;5027625;28;20292;-77
2023/12/21 12:09:09;;;;;;;;;;;;;;;9.71;100.00;99546.31;5017921;28;20378;-75
2023/12/21 12:11:34;;;;;;;;;;;;;;;9.77;100.00;99552.09;5032450;28;20160;-75
2023/12/21 12:14:00;;;;;;;;;;;;;;;9.73;100.00;99551.50;5026311;28;19953;-76
2023/12/21 12:16:25;;;;;;;;;;;;;;;9.72;100.00;99539.97;5011517;28;19924;-78
2023/12/21 12:18:50;;;;;;;;;;;;;;;9.67;100.00;99536.00;5017414;28;19983;-77
2023/12/21 12:21:16;;;;;;;;;;;;;;;9.67;100.00;99533.31;5025377;28;20039;-76
2023/12/21 12:23:45;;;;;;;;;;;;;;;9.77;100.00;99526.13;5013233;28;19928;-76
2023/12/21 12:26:10;;;;;;;;;;;;;;;9.85;100.00;99534.28;5022773;28;19948;-76
2023/12/21 12:28:35;;;;;;;;;;;;;;;9.98;100.00;99523.22;5012442;28;19932;-76
2023/12/21 12:31:00;;;;;;;;;;;;;;;10.14;100.00;99540.50;5025888;28;19937;-74
2023/12/21 12:33:26;;;;;;;;;;;;;;;10.04;100.00;99545.91;5011104;28;19921;-81